sensor_id;sensor_type;location;lat;lon;timestamp;pressure;altitude;pressure_sealevel;temperature;humidity
17649;BME280;8943;51.110;-4.158;2023-02-10T00:01:38;103313.22;;;5.85;48.82
17649;BME280;8943;51.110;-4.158;2023-02-10T00:04:11;103315.91;;;5.84;49.01
17649;BME280;8943;51.110;-4.158;2023-02-10T00:06:40;103320.34;;;5.82;49.03
17649;BME280;8943;51.110;-4.158;2023-02-10T00:09:11;103312.47;;;5.77;48.88
17649;BME280;8943;51.110;-4.158;2023-02-10T00:11:40;103323.94;;;5.76;49.33
17649;BME280;8943;51.110;-4.158;2023-02-10T00:14:28;103326.63;;;5.70;49.18
17649;BME280;8943;51.110;-4.158;2023-02-10T00:16:57;103326.69;;;5.67;49.00
17649;BME280;8943;51.110;-4.158;2023-02-10T00:19:27;103327.63;;;5.63;49.35
17649;BME280;8943;51.110;-4.158;2023-02-10T00:21:57;103330.28;;;5.60;49.29
17649;BME280;8943;51.110;-4.158;2023-02-10T00:24:26;103325.03;;;5.57;49.47
17649;BME280;8943;51.110;-4.158;2023-02-10T00:26:55;103331.19;;;5.56;48.86
17649;BME280;8943;51.110;-4.158;2023-02-10T00:29:23;103330.34;;;5.57;49.42
17649;BME280;8943;51.110;-4.158;2023-02-10T00:31:55;103335.56;;;5.60;49.22
17649;BME280;8943;51.110;-4.158;2023-02-10T00:34:23;103329.34;;;5.64;49.20
17649;BME280;8943;51.110;-4.158;2023-02-10T00:36:54;103330.19;;;5.66;49.08
17649;BME280;8943;51.110;-4.158;2023-02-10T00:39:23;103323.16;;;5.68;49.05
17649;BME280;8943;51.110;-4.158;2023-02-10T00:41:51;103316.94;;;5.69;49.19
17649;BME280;8943;51.110;-4.158;2023-02-10T00:44:20;103309.88;;;5.69;49.21
17649;BME280;8943;51.110;-4.158;2023-02-10T00:46:48;103312.47;;;5.74;49.19
17649;BME280;8943;51.110;-4.158;2023-02-10T00:49:16;103322.16;;;5.77;49.12
17649;BME280;8943;51.110;-4.158;2023-02-10T00:51:44;103326.53;;;5.81;49.05
17649;BME280;8943;51.110;-4.158;2023-02-10T00:54:12;103324.75;;;5.81;49.15
17649;BME280;8943;51.110;-4.158;2023-02-10T00:56:42;103326.50;;;5.82;48.86
17649;BME280;8943;51.110;-4.158;2023-02-10T00:59:12;103328.25;;;5.83;48.92
17649;BME280;8943;51.110;-4.158;2023-02-10T01:01:40;103325.63;;;5.82;48.83
17649;BME280;8943;51.110;-4.158;2023-02-10T01:04:08;103321.22;;;5.82;49.15
17649;BME280;8943;51.110;-4.158;2023-02-10T01:06:37;103316.00;;;5.76;48.95
17649;BME280;8943;51.110;-4.158;2023-02-10T01:09:05;103304.59;;;5.71;49.48
17649;BME280;8943;51.110;-4.158;2023-02-10T01:11:33;103304.63;;;5.68;49.34
17649;BME280;8943;51.110;-4.158;2023-02-10T01:14:02;103313.47;;;5.65;49.25
17649;BME280;8943;51.110;-4.158;2023-02-10T01:16:31;103316.16;;;5.61;49.56
17649;BME280;8943;51.110;-4.158;2023-02-10T01:18:59;103309.13;;;5.60;49.49
17649;BME280;8943;51.110;-4.158;2023-02-10T01:21:28;103312.66;;;5.59;49.26
17649;BME280;8943;51.110;-4.158;2023-02-10T01:23:56;103313.50;;;5.62;49.26
17649;BME280;8943;51.110;-4.158;2023-02-10T01:26:24;103315.25;;;5.63;49.29
17649;BME280;8943;51.110;-4.158;2023-02-10T01:28:52;103309.88;;;5.69;49.57
17649;BME280;8943;51.110;-4.158;2023-02-10T01:31:22;103318.69;;;5.72;49.39
17649;BME280;8943;51.110;-4.158;2023-02-10T01:33:51;103322.16;;;5.77;49.61
17649;BME280;8943;51.110;-4.158;2023-02-10T01:36:21;103316.81;;;5.80;49.57
17649;BME280;8943;51.110;-4.158;2023-02-10T01:38:50;103324.78;;;5.78;49.59
17649;BME280;8943;51.110;-4.158;2023-02-10T01:41:20;103328.34;;;5.77;49.64
17649;BME280;8943;51.110;-4.158;2023-02-10T01:43:58;103331.88;;;5.75;49.57
17649;BME280;8943;51.110;-4.158;2023-02-10T01:46:29;103328.41;;;5.71;49.33
17649;BME280;8943;51.110;-4.158;2023-02-10T01:49:01;103322.25;;;5.69;49.69
17649;BME280;8943;51.110;-4.158;2023-02-10T01:51:36;103321.34;;;5.70;49.96
17649;BME280;8943;51.110;-4.158;2023-02-10T01:54:06;103324.00;;;5.72;49.51
17649;BME280;8943;51.110;-4.158;2023-02-10T01:56:37;103324.88;;;5.71;49.77
17649;BME280;8943;51.110;-4.158;2023-02-10T01:59:05;103325.75;;;5.69;49.87
17649;BME280;8943;51.110;-4.158;2023-02-10T02:01:35;103316.09;;;5.67;49.84
17649;BME280;8943;51.110;-4.158;2023-02-10T02:04:04;103310.78;;;5.68;49.94
17649;BME280;8943;51.110;-4.158;2023-02-10T02:06:33;103311.63;;;5.71;49.64
17649;BME280;8943;51.110;-4.158;2023-02-10T02:09:01;103310.78;;;5.72;49.85
17649;BME280;8943;51.110;-4.158;2023-02-10T02:11:35;103310.75;;;5.70;49.68
17649;BME280;8943;51.110;-4.158;2023-02-10T02:14:17;103314.34;;;5.67;49.55
17649;BME280;8943;51.110;-4.158;2023-02-10T02:16:59;103317.88;;;5.65;49.58
17649;BME280;8943;51.110;-4.158;2023-02-10T02:19:56;103314.34;;;5.66;50.04
17649;BME280;8943;51.110;-4.158;2023-02-10T02:26:14;103298.34;;;5.75;50.07
17649;BME280;8943;51.110;-4.158;2023-02-10T02:29:04;103293.91;;;5.79;49.68
17649;BME280;8943;51.110;-4.158;2023-02-10T02:31:48;103293.03;;;5.78;49.34
17649;BME280;8943;51.110;-4.158;2023-02-10T02:34:22;103293.06;;;5.75;49.59
17649;BME280;8943;51.110;-4.158;2023-02-10T02:36:57;103296.66;;;5.71;49.25
17649;BME280;8943;51.110;-4.158;2023-02-10T02:39:27;103289.66;;;5.67;49.33
17649;BME280;8943;51.110;-4.158;2023-02-10T02:42:14;103285.31;;;5.60;49.89
17649;BME280;8943;51.110;-4.158;2023-02-10T02:44:44;103284.50;;;5.55;49.68
17649;BME280;8943;51.110;-4.158;2023-02-10T02:47:22;103290.72;;;5.52;49.82
17649;BME280;8943;51.110;-4.158;2023-02-10T02:50:04;103296.91;;;5.50;49.67
17649;BME280;8943;51.110;-4.158;2023-02-10T02:52:48;103299.59;;;5.47;49.85
17649;BME280;8943;51.110;-4.158;2023-02-10T02:55:27;103299.59;;;5.45;49.95
17649;BME280;8943;51.110;-4.158;2023-02-10T02:58:03;103305.72;;;5.49;49.95
17649;BME280;8943;51.110;-4.158;2023-02-10T03:00:36;103299.50;;;5.51;49.68
17649;BME280;8943;51.110;-4.158;2023-02-10T03:03:07;103297.75;;;5.53;49.52
17649;BME280;8943;51.110;-4.158;2023-02-10T03:05:36;103299.47;;;5.57;49.99
17649;BME280;8943;51.110;-4.158;2023-02-10T03:08:04;103298.59;;;5.57;49.51
17649;BME280;8943;51.110;-4.158;2023-02-10T03:10:32;103297.75;;;5.53;49.69
17649;BME280;8943;51.110;-4.158;2023-02-10T03:13:00;103294.25;;;5.50;49.53
17649;BME280;8943;51.110;-4.158;2023-02-10T03:15:28;103282.81;;;5.48;49.52
17649;BME280;8943;51.110;-4.158;2023-02-10T03:17:57;103279.38;;;5.39;49.41
17649;BME280;8943;51.110;-4.158;2023-02-10T03:20:27;103278.56;;;5.34;49.93
17649;BME280;8943;51.110;-4.158;2023-02-10T03:22:55;103273.34;;;5.28;49.95
17649;BME280;8943;51.110;-4.158;2023-02-10T03:25:23;103270.75;;;5.22;50.06
17649;BME280;8943;51.110;-4.158;2023-02-10T03:27:51;103273.47;;;5.18;49.70
17649;BME280;8943;51.110;-4.158;2023-02-10T03:30:19;103269.06;;;5.12;49.68
17649;BME280;8943;51.110;-4.158;2023-02-10T03:32:47;103274.38;;;5.12;50.22
17649;BME280;8943;51.110;-4.158;2023-02-10T03:35:18;103274.41;;;5.09;49.45
17649;BME280;8943;51.110;-4.158;2023-02-10T03:37:47;103274.44;;;5.06;49.96
17649;BME280;8943;51.110;-4.158;2023-02-10T03:40:15;103270.03;;;5.05;49.84
17649;BME280;8943;51.110;-4.158;2023-02-10T03:42:44;103274.47;;;5.04;49.99
17649;BME280;8943;51.110;-4.158;2023-02-10T03:45:12;103270.88;;;5.07;50.29
17649;BME280;8943;51.110;-4.158;2023-02-10T03:47:40;103271.78;;;5.06;49.80
17649;BME280;8943;51.110;-4.158;2023-02-10T03:50:08;103268.25;;;5.08;50.06
17649;BME280;8943;51.110;-4.158;2023-02-10T03:52:36;103271.75;;;5.07;50.32
17649;BME280;8943;51.110;-4.158;2023-02-10T03:55:08;103265.59;;;5.08;50.14
17649;BME280;8943;51.110;-4.158;2023-02-10T03:57:40;103259.44;;;5.06;49.98
17649;BME280;8943;51.110;-4.158;2023-02-10T04:00:09;103261.28;;;5.03;50.20
17649;BME280;8943;51.110;-4.158;2023-02-10T04:02:38;103247.19;;;4.99;50.06
17649;BME280;8943;51.110;-4.158;2023-02-10T04:05:06;103262.19;;;4.99;50.12
17649;BME280;8943;51.110;-4.158;2023-02-10T04:07:35;103260.44;;;4.96;50.52
17649;BME280;8943;51.110;-4.158;2023-02-10T04:10:04;103255.16;;;4.95;50.26
17649;BME280;8943;51.110;-4.158;2023-02-10T04:12:34;103250.75;;;4.95;50.28
17649;BME280;8943;51.110;-4.158;2023-02-10T04:15:02;103249.88;;;4.95;50.03
17649;BME280;8943;51.110;-4.158;2023-02-10T04:17:30;103238.44;;;4.93;50.16
17649;BME280;8943;51.110;-4.158;2023-02-10T04:19:58;103246.38;;;4.94;50.34
17649;BME280;8943;51.110;-4.158;2023-02-10T04:22:26;103248.13;;;4.94;50.63
17649;BME280;8943;51.110;-4.158;2023-02-10T04:24:54;103246.34;;;4.93;50.53
17649;BME280;8943;51.110;-4.158;2023-02-10T04:27:22;103244.59;;;4.95;50.46
17649;BME280;8943;51.110;-4.158;2023-02-10T04:29:52;103246.34;;;4.96;50.45
17649;BME280;8943;51.110;-4.158;2023-02-10T04:32:20;103254.25;;;4.99;50.34
17649;BME280;8943;51.110;-4.158;2023-02-10T04:34:48;103256.84;;;5.02;50.39
17649;BME280;8943;51.110;-4.158;2023-02-10T04:37:16;103251.56;;;5.03;50.31
17649;BME280;8943;51.110;-4.158;2023-02-10T04:39:44;103255.03;;;5.08;50.59
17649;BME280;8943;51.110;-4.158;2023-02-10T04:42:12;103248.84;;;5.12;50.50
17649;BME280;8943;51.110;-4.158;2023-02-10T04:44:40;103251.47;;;5.12;50.24
17649;BME280;8943;51.110;-4.158;2023-02-10T04:47:10;103254.13;;;5.12;50.36
17649;BME280;8943;51.110;-4.158;2023-02-10T04:49:38;103246.16;;;5.14;50.33
17649;BME280;8943;51.110;-4.158;2023-02-10T04:52:06;103247.91;;;5.18;50.57
17649;BME280;8943;51.110;-4.158;2023-02-10T04:54:34;103242.56;;;5.21;50.56
17649;BME280;8943;51.110;-4.158;2023-02-10T04:57:02;103253.09;;;5.24;50.50
17649;BME280;8943;51.110;-4.158;2023-02-10T04:59:30;103253.09;;;5.24;50.19
17649;BME280;8943;51.110;-4.158;2023-02-10T05:01:58;103247.91;;;5.18;50.27
17649;BME280;8943;51.110;-4.158;2023-02-10T05:04:28;103251.47;;;5.14;50.86
17649;BME280;8943;51.110;-4.158;2023-02-10T05:06:56;103250.56;;;5.15;50.43
17649;BME280;8943;51.110;-4.158;2023-02-10T05:09:25;103250.53;;;5.16;50.70
17649;BME280;8943;51.110;-4.158;2023-02-10T05:11:54;103253.13;;;5.21;50.44
17649;BME280;8943;51.110;-4.158;2023-02-10T05:14:22;103261.03;;;5.27;50.74
17649;BME280;8943;51.110;-4.158;2023-02-10T05:16:50;103263.59;;;5.30;50.49
17649;BME280;8943;51.110;-4.158;2023-02-10T05:19:18;103261.84;;;5.32;51.09
17649;BME280;8943;51.110;-4.158;2023-02-10T05:21:48;103262.66;;;5.37;50.77
17649;BME280;8943;51.110;-4.158;2023-02-10T05:24:16;103270.53;;;5.40;50.71
17649;BME280;8943;51.110;-4.158;2023-02-10T05:26:44;103275.78;;;5.45;50.89
17649;BME280;8943;51.110;-4.158;2023-02-10T05:29:12;103284.56;;;5.49;50.99
17649;BME280;8943;51.110;-4.158;2023-02-10T05:31:40;103287.16;;;5.53;51.07
17649;BME280;8943;51.110;-4.158;2023-02-10T05:34:09;103278.25;;;5.60;51.00
17649;BME280;8943;51.110;-4.158;2023-02-10T05:36:37;103279.06;;;5.67;51.25
17649;BME280;8943;51.110;-4.158;2023-02-10T05:39:06;103290.41;;;5.77;51.22
17649;BME280;8943;51.110;-4.158;2023-02-10T05:41:54;103284.19;;;5.82;50.85
17649;BME280;8943;51.110;-4.158;2023-02-10T05:44:24;103282.31;;;5.90;51.09
17649;BME280;8943;51.110;-4.158;2023-02-10T05:46:52;103282.25;;;5.97;50.84
17649;BME280;8943;51.110;-4.158;2023-02-10T05:49:21;103277.78;;;6.02;50.91
17649;BME280;8943;51.110;-4.158;2023-02-10T05:51:49;103275.88;;;6.10;51.03
17649;BME280;8943;51.110;-4.158;2023-02-10T05:54:19;103274.88;;;6.18;50.88
17649;BME280;8943;51.110;-4.158;2023-02-10T05:56:48;103275.69;;;6.24;51.19
17649;BME280;8943;51.110;-4.158;2023-02-10T05:59:17;103258.84;;;6.29;50.83
17649;BME280;8943;51.110;-4.158;2023-02-10T06:01:45;103263.16;;;6.36;50.88
17649;BME280;8943;51.110;-4.158;2023-02-10T06:04:13;103258.63;;;6.44;51.23
17649;BME280;8943;51.110;-4.158;2023-02-10T06:06:41;103260.25;;;6.53;50.81
17649;BME280;8943;51.110;-4.158;2023-02-10T06:09:10;103265.44;;;6.61;51.11
17649;BME280;8943;51.110;-4.158;2023-02-10T06:11:39;103259.13;;;6.69;50.94
17649;BME280;8943;51.110;-4.158;2023-02-10T06:14:07;103266.06;;;6.77;50.76
17649;BME280;8943;51.110;-4.158;2023-02-10T06:16:35;103262.34;;;6.88;50.85
17649;BME280;8943;51.110;-4.158;2023-02-10T06:19:03;103266.63;;;6.95;50.99
17649;BME280;8943;51.110;-4.158;2023-02-10T06:21:31;103257.63;;;7.03;50.81
17649;BME280;8943;51.110;-4.158;2023-02-10T06:24:00;103261.91;;;7.11;50.68
17649;BME280;8943;51.110;-4.158;2023-02-10T06:26:28;103257.47;;;7.12;50.44
17649;BME280;8943;51.110;-4.158;2023-02-10T06:28:57;103254.84;;;7.10;50.53
17649;BME280;8943;51.110;-4.158;2023-02-10T06:31:25;103246.03;;;7.10;50.62
17649;BME280;8943;51.110;-4.158;2023-02-10T06:33:54;103256.56;;;7.14;50.50
17649;BME280;8943;51.110;-4.158;2023-02-10T06:36:22;103252.13;;;7.15;51.10
17649;BME280;8943;51.110;-4.158;2023-02-10T06:38:50;103254.75;;;7.16;50.64
17649;BME280;8943;51.110;-4.158;2023-02-10T06:41:18;103252.09;;;7.18;50.80
17649;BME280;8943;51.110;-4.158;2023-02-10T06:43:46;103264.44;;;7.19;50.52
17649;BME280;8943;51.110;-4.158;2023-02-10T06:46:15;103255.59;;;7.17;51.15
17649;BME280;8943;51.110;-4.158;2023-02-10T06:48:43;103253.88;;;7.16;50.82
17649;BME280;8943;51.110;-4.158;2023-02-10T06:51:11;103263.47;;;7.23;50.69
17649;BME280;8943;51.110;-4.158;2023-02-10T06:53:40;103257.13;;;7.30;50.69
17649;BME280;8943;51.110;-4.158;2023-02-10T06:56:09;103269.31;;;7.40;50.74
17649;BME280;8943;51.110;-4.158;2023-02-10T06:58:37;103264.78;;;7.47;50.64
17649;BME280;8943;51.110;-4.158;2023-02-10T07:01:09;103265.63;;;7.49;50.55
17649;BME280;8943;51.110;-4.158;2023-02-10T07:03:39;103265.66;;;7.47;50.31
17649;BME280;8943;51.110;-4.158;2023-02-10T07:06:07;103262.13;;;7.45;49.73
17649;BME280;8943;51.110;-4.158;2023-02-10T07:08:35;103269.34;;;7.39;50.21
17649;BME280;8943;51.110;-4.158;2023-02-10T07:11:04;103271.31;;;7.29;50.05
17649;BME280;8943;51.110;-4.158;2023-02-10T07:13:32;103269.69;;;7.20;49.85
17649;BME280;8943;51.110;-4.158;2023-02-10T07:16:00;103266.28;;;7.12;50.43
17649;BME280;8943;51.110;-4.158;2023-02-10T07:18:28;103271.63;;;7.11;50.64
17649;BME280;8943;51.110;-4.158;2023-02-10T07:20:58;103270.75;;;7.10;50.75
17649;BME280;8943;51.110;-4.158;2023-02-10T07:23:26;103269.91;;;7.10;50.68
17649;BME280;8943;51.110;-4.158;2023-02-10T07:26:02;103276.06;;;7.10;50.44
17649;BME280;8943;51.110;-4.158;2023-02-10T07:28:31;103280.50;;;7.10;50.48
17649;BME280;8943;51.110;-4.158;2023-02-10T07:30:59;103268.06;;;7.12;50.46
17649;BME280;8943;51.110;-4.158;2023-02-10T07:33:28;103283.06;;;7.14;50.46
17649;BME280;8943;51.110;-4.158;2023-02-10T07:35:59;103271.50;;;7.17;50.58
17649;BME280;8943;51.110;-4.158;2023-02-10T07:38:29;103277.72;;;7.16;50.47
17649;BME280;8943;51.110;-4.158;2023-02-10T07:40:57;103272.50;;;7.11;50.66
17649;BME280;8943;51.110;-4.158;2023-02-10T07:43:26;103280.53;;;7.08;50.55
17649;BME280;8943;51.110;-4.158;2023-02-10T07:45:54;103278.81;;;7.06;50.61
17649;BME280;8943;51.110;-4.158;2023-02-10T07:48:22;103276.25;;;7.00;50.51
17649;BME280;8943;51.110;-4.158;2023-02-10T07:50:50;103283.38;;;6.96;50.53
17649;BME280;8943;51.110;-4.158;2023-02-10T07:53:21;103272.84;;;6.93;50.75
17649;BME280;8943;51.110;-4.158;2023-02-10T07:55:49;103275.50;;;6.91;50.68
17649;BME280;8943;51.110;-4.158;2023-02-10T07:58:17;103274.59;;;6.92;50.66
17649;BME280;8943;51.110;-4.158;2023-02-10T08:00:46;103279.91;;;6.94;50.55
17649;BME280;8943;51.110;-4.158;2023-02-10T08:03:15;103287.84;;;6.94;50.41
17649;BME280;8943;51.110;-4.158;2023-02-10T08:05:43;103286.13;;;6.91;50.63
17649;BME280;8943;51.110;-4.158;2023-02-10T08:08:15;103290.53;;;6.91;50.62
17649;BME280;8943;51.110;-4.158;2023-02-10T08:10:45;103287.94;;;6.89;50.76
17649;BME280;8943;51.110;-4.158;2023-02-10T08:13:13;103293.16;;;6.92;50.95
17649;BME280;8943;51.110;-4.158;2023-02-10T08:15:42;103305.47;;;6.96;51.29
17649;BME280;8943;51.110;-4.158;2023-02-10T08:18:10;103303.59;;;7.02;51.06
17649;BME280;8943;51.110;-4.158;2023-02-10T08:20:38;103313.22;;;7.09;51.45
17649;BME280;8943;51.110;-4.158;2023-02-10T08:23:13;103304.25;;;7.16;51.46
17649;BME280;8943;51.110;-4.158;2023-02-10T08:25:41;103313.88;;;7.23;51.11
17649;BME280;8943;51.110;-4.158;2023-02-10T08:28:10;103317.22;;;7.31;51.11
17649;BME280;8943;51.110;-4.158;2023-02-10T08:30:39;103315.34;;;7.36;51.25
17649;BME280;8943;51.110;-4.158;2023-02-10T08:33:07;103312.63;;;7.42;51.18
17649;BME280;8943;51.110;-4.158;2023-02-10T08:35:36;103311.59;;;7.49;51.08
17649;BME280;8943;51.110;-4.158;2023-02-10T08:38:05;103312.38;;;7.55;51.16
17649;BME280;8943;51.110;-4.158;2023-02-10T08:40:35;103304.28;;;7.61;51.27
17649;BME280;8943;51.110;-4.158;2023-02-10T08:43:03;103312.94;;;7.72;51.17
17649;BME280;8943;51.110;-4.158;2023-02-10T08:45:33;103316.28;;;7.80;51.32
17649;BME280;8943;51.110;-4.158;2023-02-10T08:48:05;103305.47;;;7.89;51.20
17649;BME280;8943;51.110;-4.158;2023-02-10T08:50:33;103315.00;;;7.99;51.19
17649;BME280;8943;51.110;-4.158;2023-02-10T08:53:01;103318.28;;;8.12;51.17
17649;BME280;8943;51.110;-4.158;2023-02-10T08:55:29;103311.91;;;8.21;51.51
17649;BME280;8943;51.110;-4.158;2023-02-10T08:57:57;103307.16;;;8.34;51.45
17649;BME280;8943;51.110;-4.158;2023-02-10T09:00:25;103316.59;;;8.48;51.50
17649;BME280;8943;51.110;-4.158;2023-02-10T09:02:54;103298.59;;;8.61;51.24
17649;BME280;8943;51.110;-4.158;2023-02-10T09:05:23;103304.50;;;8.74;51.48
17649;BME280;8943;51.110;-4.158;2023-02-10T09:07:51;103303.25;;;8.87;51.24
17649;BME280;8943;51.110;-4.158;2023-02-10T09:10:19;103317.06;;;9.03;51.46
17649;BME280;8943;51.110;-4.158;2023-02-10T09:12:47;103316.69;;;9.17;51.25
17649;BME280;8943;51.110;-4.158;2023-02-10T09:15:15;103319.97;;;9.28;51.32
17649;BME280;8943;51.110;-4.158;2023-02-10T09:17:43;103317.81;;;9.42;51.14
17649;BME280;8943;51.110;-4.158;2023-02-10T09:20:13;103317.47;;;9.54;51.42
17649;BME280;8943;51.110;-4.158;2023-02-10T09:22:41;103311.88;;;9.64;51.09
17649;BME280;8943;51.110;-4.158;2023-02-10T09:25:09;103315.09;;;9.76;51.09
17649;BME280;8943;51.110;-4.158;2023-02-10T09:27:37;103318.25;;;9.89;51.16
17649;BME280;8943;51.110;-4.158;2023-02-10T09:30:06;103311.66;;;10.02;50.94
17649;BME280;8943;51.110;-4.158;2023-02-10T09:32:35;103310.38;;;10.16;50.98
17649;BME280;8943;51.110;-4.158;2023-02-10T09:35:03;103311.88;;;10.26;50.89
17649;BME280;8943;51.110;-4.158;2023-02-10T09:37:33;103315.94;;;10.38;50.61
17649;BME280;8943;51.110;-4.158;2023-02-10T09:40:01;103317.44;;;10.46;50.52
17649;BME280;8943;51.110;-4.158;2023-02-10T09:42:34;103308.28;;;10.55;50.58
17649;BME280;8943;51.110;-4.158;2023-02-10T09:45:10;103304.44;;;10.64;50.83
17649;BME280;8943;51.110;-4.158;2023-02-10T09:47:47;103313.78;;;10.77;50.70
17649;BME280;8943;51.110;-4.158;2023-02-10T09:50:26;103311.53;;;10.91;50.63
17649;BME280;8943;51.110;-4.158;2023-02-10T09:53:04;103312.97;;;11.01;50.37
17649;BME280;8943;51.110;-4.158;2023-02-10T09:55:38;103305.50;;;11.13;50.57
17649;BME280;8943;51.110;-4.158;2023-02-10T09:58:15;103311.31;;;11.24;50.60
17649;BME280;8943;51.110;-4.158;2023-02-10T10:00:47;103317.94;;;11.39;50.59
17649;BME280;8943;51.110;-4.158;2023-02-10T10:03:18;103307.66;;;11.51;50.34
17649;BME280;8943;51.110;-4.158;2023-02-10T10:05:55;103308.91;;;11.66;50.34
17649;BME280;8943;51.110;-4.158;2023-02-10T10:08:34;103305.84;;;11.77;49.93
17649;BME280;8943;51.110;-4.158;2023-02-10T10:11:19;103303.75;;;11.87;49.79
17649;BME280;8943;51.110;-4.158;2023-02-10T10:13:50;103299.84;;;11.95;50.04
17649;BME280;8943;51.110;-4.158;2023-02-10T10:16:24;103301.19;;;12.07;49.56
17649;BME280;8943;51.110;-4.158;2023-02-10T10:19:01;103303.44;;;12.18;49.71
17649;BME280;8943;51.110;-4.158;2023-02-10T10:21:36;103303.94;;;12.27;49.85
17649;BME280;8943;51.110;-4.158;2023-02-10T10:24:25;103309.69;;;12.40;49.77
17649;BME280;8943;51.110;-4.158;2023-02-10T10:27:03;103302.09;;;12.51;49.69
17649;BME280;8943;51.110;-4.158;2023-02-10T10:29:41;103308.03;;;12.59;49.59
17649;BME280;8943;51.110;-4.158;2023-02-10T10:32:15;103308.56;;;12.68;49.37
17649;BME280;8943;51.110;-4.158;2023-02-10T10:34:49;103313.41;;;12.80;49.38
17649;BME280;8943;51.110;-4.158;2023-02-10T10:37:21;103315.63;;;12.91;49.40
17649;BME280;8943;51.110;-4.158;2023-02-10T10:39:54;103311.81;;;12.96;49.07
17649;BME280;8943;51.110;-4.158;2023-02-10T10:42:27;103306.97;;;13.06;48.65
17649;BME280;8943;51.110;-4.158;2023-02-10T10:45:02;103304.63;;;13.19;49.04
17649;BME280;8943;51.110;-4.158;2023-02-10T10:47:41;103312.22;;;13.29;48.98
17649;BME280;8943;51.110;-4.158;2023-02-10T10:50:14;103312.56;;;13.42;49.05
17649;BME280;8943;51.110;-4.158;2023-02-10T10:52:44;103314.50;;;13.59;49.02
17649;BME280;8943;51.110;-4.158;2023-02-10T10:55:22;103315.53;;;13.75;48.89
17649;BME280;8943;51.110;-4.158;2023-02-10T10:57:52;103321.09;;;13.91;48.79
17649;BME280;8943;51.110;-4.158;2023-02-10T11:00:24;103315.00;;;14.06;48.79
17649;BME280;8943;51.110;-4.158;2023-02-10T11:02:54;103319.63;;;14.22;48.92
17649;BME280;8943;51.110;-4.158;2023-02-10T11:05:26;103333.09;;;14.39;48.37
17649;BME280;8943;51.110;-4.158;2023-02-10T11:07:55;103321.75;;;14.53;48.40
17649;BME280;8943;51.110;-4.158;2023-02-10T11:10:29;103316.47;;;14.68;48.16
17649;BME280;8943;51.110;-4.158;2023-02-10T11:12:59;103322.03;;;14.83;48.12
17649;BME280;8943;51.110;-4.158;2023-02-10T11:15:33;103320.41;;;14.98;48.11
17649;BME280;8943;51.110;-4.158;2023-02-10T11:18:06;103332.13;;;15.14;47.94
17649;BME280;8943;51.110;-4.158;2023-02-10T11:20:35;103331.56;;;15.25;47.84
17649;BME280;8943;51.110;-4.158;2023-02-10T11:23:12;103329.97;;;15.38;47.60
17649;BME280;8943;51.110;-4.158;2023-02-10T11:25:46;103324.91;;;15.49;47.34
17649;BME280;8943;51.110;-4.158;2023-02-10T11:28:17;103319.13;;;15.57;46.96
17649;BME280;8943;51.110;-4.158;2023-02-10T11:30:53;103326.66;;;15.67;47.11
17649;BME280;8943;51.110;-4.158;2023-02-10T11:33:24;103316.59;;;15.71;46.87
17649;BME280;8943;51.110;-4.158;2023-02-10T11:35:58;103316.94;;;15.81;46.92
17649;BME280;8943;51.110;-4.158;2023-02-10T11:38:27;103322.03;;;15.87;46.72
17649;BME280;8943;51.110;-4.158;2023-02-10T11:40:58;103316.06;;;15.98;46.68
17649;BME280;8943;51.110;-4.158;2023-02-10T11:43:30;103309.63;;;16.00;46.66
17649;BME280;8943;51.110;-4.158;2023-02-10T11:46:01;103309.38;;;16.05;46.33
17649;BME280;8943;51.110;-4.158;2023-02-10T11:48:30;103315.59;;;16.05;46.31
17649;BME280;8943;51.110;-4.158;2023-02-10T11:51:06;103311.66;;;16.12;46.10
17649;BME280;8943;51.110;-4.158;2023-02-10T11:53:40;103308.44;;;16.21;46.47
17649;BME280;8943;51.110;-4.158;2023-02-10T11:56:16;103310.53;;;16.32;46.34
17649;BME280;8943;51.110;-4.158;2023-02-10T11:58:59;103301.06;;;16.41;46.40
17649;BME280;8943;51.110;-4.158;2023-02-10T12:01:49;103311.47;;;16.47;46.24
17649;BME280;8943;51.110;-4.158;2023-02-10T12:04:52;103305.06;;;16.50;45.97
17649;BME280;8943;51.110;-4.158;2023-02-10T12:07:32;103316.16;;;16.43;45.69
17649;BME280;8943;51.110;-4.158;2023-02-10T12:10:11;103313.66;;;16.40;45.80
17649;BME280;8943;51.110;-4.158;2023-02-10T12:12:51;103302.97;;;16.39;45.52
17649;BME280;8943;51.110;-4.158;2023-02-10T12:15:33;103316.66;;;16.34;45.74
17649;BME280;8943;51.110;-4.158;2023-02-10T12:18:12;103310.00;;;16.26;45.82
17649;BME280;8943;51.110;-4.158;2023-02-10T12:20:52;103302.97;;;16.23;45.59
17649;BME280;8943;51.110;-4.158;2023-02-10T12:23:48;103307.13;;;16.13;45.83
17649;BME280;8943;51.110;-4.158;2023-02-10T12:26:22;103306.78;;;16.03;45.75
17649;BME280;8943;51.110;-4.158;2023-02-10T12:29:02;103306.31;;;15.95;46.12
17649;BME280;8943;51.110;-4.158;2023-02-10T12:31:42;103310.47;;;15.85;46.47
17649;BME280;8943;51.110;-4.158;2023-02-10T12:34:42;103312.63;;;15.78;46.89
17649;BME280;8943;51.110;-4.158;2023-02-10T12:37:24;103304.09;;;15.70;46.92
17649;BME280;8943;51.110;-4.158;2023-02-10T12:42:51;103309.88;;;15.62;47.42
17649;BME280;8943;51.110;-4.158;2023-02-10T12:45:31;103311.84;;;15.59;47.56
17649;BME280;8943;51.110;-4.158;2023-02-10T12:48:09;103304.50;;;15.62;47.84
17649;BME280;8943;51.110;-4.158;2023-02-10T12:50:56;103305.44;;;15.61;48.01
17649;BME280;8943;51.110;-4.158;2023-02-10T12:53:33;103298.31;;;15.60;48.17
17649;BME280;8943;51.110;-4.158;2023-02-10T12:56:05;103299.28;;;15.59;48.40
17649;BME280;8943;51.110;-4.158;2023-02-10T12:58:40;103298.31;;;15.60;48.34
17649;BME280;8943;51.110;-4.158;2023-02-10T13:01:15;103293.13;;;15.57;48.74
17649;BME280;8943;51.110;-4.158;2023-02-10T13:03:47;103291.38;;;15.56;48.62
17649;BME280;8943;51.110;-4.158;2023-02-10T13:06:22;103290.50;;;15.56;48.78
17649;BME280;8943;51.110;-4.158;2023-02-10T13:08:57;103285.31;;;15.53;49.08
17649;BME280;8943;51.110;-4.158;2023-02-10T13:11:33;103295.00;;;15.55;49.25
17649;BME280;8943;51.110;-4.158;2023-02-10T13:14:08;103281.41;;;15.58;49.34
17649;BME280;8943;51.110;-4.158;2023-02-10T13:16:50;103291.78;;;15.66;49.50
17649;BME280;8943;51.110;-4.158;2023-02-10T13:19:26;103300.41;;;15.73;49.66
17649;BME280;8943;51.110;-4.158;2023-02-10T13:21:59;103284.53;;;15.84;49.65
17649;BME280;8943;51.110;-4.158;2023-02-10T13:24:34;103283.16;;;15.92;49.37
17649;BME280;8943;51.110;-4.158;2023-02-10T13:27:30;103279.97;;;16.02;49.73